createdAt,value
2022-12-27T00:00:52.965Z,101201.75
2022-12-27T00:03:40.461Z,101198.25
2022-12-27T00:06:28.840Z,101211.38
2022-12-27T00:09:15.350Z,101209.63
2022-12-27T00:12:02.922Z,101207.00
2022-12-27T00:14:50.339Z,101200.00
2022-12-27T00:17:38.861Z,101209.63
2022-12-27T00:20:25.537Z,101215.72
2022-12-27T00:23:13.828Z,101222.72
2022-12-27T00:26:09.670Z,101227.97
2022-12-27T00:29:01.685Z,101232.34
2022-12-27T00:31:51.702Z,101227.97
2022-12-27T00:34:46.717Z,101235.81
2022-12-27T00:37:33.735Z,101236.69
2022-12-27T00:40:21.988Z,101230.56
2022-12-27T00:43:09.060Z,101233.19
2022-12-27T00:45:55.961Z,101229.66
2022-12-27T00:48:43.285Z,101239.25
2022-12-27T00:51:30.003Z,101238.34
2022-12-27T00:54:17.092Z,101240.94
2022-12-27T00:57:05.170Z,101243.56
2022-12-27T00:59:51.807Z,101244.44
2022-12-27T01:02:38.585Z,101184.88
2022-12-27T01:05:25.389Z,101252.22
2022-12-27T01:08:12.315Z,101258.34
2022-12-27T01:10:59.383Z,101263.59
2022-12-27T01:13:47.949Z,101262.72
2022-12-27T01:16:36.007Z,101266.22
2022-12-27T01:19:22.718Z,101275.75
2022-12-27T01:22:09.516Z,101277.53
2022-12-27T01:24:56.479Z,101280.13
2022-12-27T01:27:43.264Z,101270.44
2022-12-27T01:30:32.306Z,101286.22
2022-12-27T01:33:19.067Z,101277.44
2022-12-27T01:36:11.383Z,101290.56
2022-12-27T01:38:59.225Z,101254.66
2022-12-27T01:42:04.352Z,101304.44
2022-12-27T01:44:59.254Z,101308.78
2022-12-27T01:47:52.704Z,101305.25
2022-12-27T01:50:42.845Z,101309.63
2022-12-27T01:53:32.500Z,101314.06
2022-12-27T01:56:25.390Z,101318.41
2022-12-27T01:59:15.258Z,101314.88
2022-12-27T02:02:02.392Z,101313.16
2022-12-27T02:04:51.124Z,101318.38
2022-12-27T02:07:47.038Z,101320.13
2022-12-27T02:10:34.638Z,101326.16
2022-12-27T02:13:22.076Z,101336.59
2022-12-27T02:16:13.694Z,101328.72
2022-12-27T02:19:00.441Z,101337.53
2022-12-27T02:22:27.316Z,101340.97
2022-12-27T02:25:26.250Z,101336.47
2022-12-27T02:28:34.122Z,101345.31
2022-12-27T02:31:32.370Z,101341.78
2022-12-27T02:34:24.746Z,101335.59
2022-12-27T02:37:14.672Z,101350.44
2022-12-27T02:40:18.414Z,101354.81
2022-12-27T02:43:23.873Z,101349.56
2022-12-27T02:46:36.743Z,101350.38
2022-12-27T02:49:44.779Z,101359.91
2022-12-27T02:53:05.323Z,101359.91
2022-12-27T02:56:18.297Z,101360.78
2022-12-27T02:59:21.930Z,101364.25
2022-12-27T03:02:42.879Z,101367.00
2022-12-27T03:05:44.961Z,101372.19
2022-12-27T03:08:39.591Z,101364.38
2022-12-27T03:11:51.247Z,101360.00
2022-12-27T03:15:01.375Z,101374.91
2022-12-27T03:17:54.715Z,101381.97
2022-12-27T03:21:02.590Z,101389.84
2022-12-27T03:24:10.246Z,101395.91
2022-12-27T03:26:59.368Z,101370.53
2022-12-27T03:30:10.365Z,101399.50
2022-12-27T03:33:16.109Z,101408.22
2022-12-27T03:36:34.487Z,101405.59
2022-12-27T03:39:32.110Z,101409.97
2022-12-27T03:42:42.480Z,101405.56
2022-12-27T03:45:51.542Z,101403.78
2022-12-27T03:48:46.890Z,101415.06
2022-12-27T03:51:39.283Z,101420.19
2022-12-27T03:54:29.522Z,101417.41
2022-12-27T03:57:19.744Z,101417.28
2022-12-27T04:00:07.952Z,101413.81
2022-12-27T04:02:59.859Z,101420.75
2022-12-27T04:05:46.996Z,101425.06
2022-12-27T04:08:52.477Z,101424.97
2022-12-27T04:11:56.436Z,101424.09
2022-12-27T04:15:01.087Z,101428.50
2022-12-27T04:18:05.787Z,101429.31
2022-12-27T04:21:10.022Z,101429.22
2022-12-27T04:24:15.478Z,101437.03
2022-12-27T04:27:19.745Z,101432.59
2022-12-27T04:30:25.406Z,101425.44
2022-12-27T04:33:29.856Z,101422.72
2022-12-27T04:36:16.681Z,101428.88
2022-12-27T04:39:05.432Z,101426.22
2022-12-27T04:42:09.317Z,101427.91
2022-12-27T04:45:15.575Z,101431.59
2022-12-27T04:48:19.805Z,101414.03
2022-12-27T04:51:24.443Z,101416.75
2022-12-27T04:54:44.644Z,101425.44
2022-12-27T04:57:31.236Z,101418.41
2022-12-27T05:00:37.213Z,101428.75
2022-12-27T05:03:25.531Z,101435.69
2022-12-27T05:06:12.976Z,101431.50
2022-12-27T05:09:21.474Z,101428.06
2022-12-27T05:12:29.441Z,101428.94
2022-12-27T05:15:16.317Z,101432.44
2022-12-27T05:18:03.355Z,101423.69
2022-12-27T05:20:50.427Z,101427.22
2022-12-27T05:23:56.789Z,101433.25
2022-12-27T05:26:45.671Z,101427.09
2022-12-27T05:29:36.144Z,101424.56
2022-12-27T05:32:23.707Z,101426.44
2022-12-27T05:35:10.616Z,101422.84
2022-12-27T05:37:58.448Z,101431.69
2022-12-27T05:40:44.973Z,101432.53
2022-12-27T05:43:33.020Z,101434.41
2022-12-27T05:46:23.284Z,101435.19
2022-12-27T05:49:09.880Z,101436.81
2022-12-27T05:51:56.633Z,101446.59
2022-12-27T05:54:43.555Z,101434.34
2022-12-27T05:57:31.060Z,101446.53
2022-12-27T06:00:18.242Z,101443.91
2022-12-27T06:03:06.583Z,101446.59
2022-12-27T06:05:54.164Z,101459.66
2022-12-27T06:08:41.527Z,101459.75
2022-12-27T06:11:28.183Z,101460.56
2022-12-27T06:14:15.010Z,101457.97
2022-12-27T06:17:02.005Z,101451.97
2022-12-27T06:19:53.911Z,101455.47
2022-12-27T06:22:44.408Z,101454.53
2022-12-27T06:25:31.243Z,101465.94
2022-12-27T06:28:19.068Z,101463.34
2022-12-27T06:31:06.571Z,101470.31
2022-12-27T06:33:54.040Z,101459.00
2022-12-27T06:36:43.128Z,101460.69
2022-12-27T06:39:31.121Z,101464.34
2022-12-27T06:42:18.312Z,101470.44
2022-12-27T06:45:06.517Z,101473.13
2022-12-27T06:47:53.206Z,101471.31
2022-12-27T06:50:40.027Z,101478.31
2022-12-27T06:53:28.125Z,101359.75
2022-12-27T06:56:17.087Z,101477.38
2022-12-27T06:59:03.839Z,101478.28
2022-12-27T07:01:50.886Z,101481.88
2022-12-27T07:04:37.578Z,101491.53
2022-12-27T07:07:24.506Z,101493.34
2022-12-27T07:10:12.838Z,101496.81
2022-12-27T07:12:59.819Z,101504.63
2022-12-27T07:15:46.271Z,101506.38
2022-12-27T07:18:33.179Z,101522.00
2022-12-27T07:21:21.794Z,101516.91
2022-12-27T07:24:09.354Z,101514.25
2022-12-27T07:26:57.179Z,101524.06
2022-12-27T07:29:45.857Z,101525.97
2022-12-27T07:32:33.498Z,101527.78
2022-12-27T07:35:20.113Z,101540.81
2022-12-27T07:38:07.019Z,101539.06
2022-12-27T07:40:53.937Z,101543.47
2022-12-27T07:43:43.816Z,101538.19
2022-12-27T07:46:30.421Z,101543.63
2022-12-27T07:49:18.010Z,101542.84
2022-12-27T07:52:05.214Z,101531.53
2022-12-27T07:54:51.719Z,101538.56
2022-12-27T07:57:38.662Z,101558.72
2022-12-27T08:00:28.209Z,101559.66
2022-12-27T08:03:14.936Z,101561.31
2022-12-27T08:06:01.824Z,101564.09
2022-12-27T08:08:48.760Z,101558.81
2022-12-27T08:11:35.378Z,101563.19
2022-12-27T08:14:22.162Z,101552.75
2022-12-27T08:17:17.383Z,101573.78
2022-12-27T08:20:04.284Z,101576.41
2022-12-27T08:22:50.941Z,101579.88
2022-12-27T08:25:38.167Z,101569.41
2022-12-27T08:28:28.312Z,101572.00
2022-12-27T08:31:15.196Z,101575.56
2022-12-27T08:34:04.052Z,101567.78
2022-12-27T08:36:55.995Z,101559.91
2022-12-27T08:39:43.280Z,101567.84
2022-12-27T08:42:29.865Z,101568.75
2022-12-27T08:45:16.953Z,101568.75
2022-12-27T08:48:04.009Z,101580.06
2022-12-27T08:50:51.855Z,101582.75
2022-12-27T08:53:38.790Z,101581.00
2022-12-27T08:56:25.675Z,101583.66
2022-12-27T08:59:12.449Z,101576.63
2022-12-27T09:01:59.330Z,101570.63
2022-12-27T09:04:46.066Z,101584.59
2022-12-27T09:07:34.515Z,101576.81
2022-12-27T09:10:22.471Z,101589.91
2022-12-27T09:13:09.369Z,101592.59
2022-12-27T09:15:56.009Z,101591.75
2022-12-27T09:18:43.831Z,101596.97
2022-12-27T09:21:32.790Z,101596.97
2022-12-27T09:24:21.263Z,101593.44
2022-12-27T09:27:07.725Z,101590.84
2022-12-27T09:29:54.452Z,101592.59
2022-12-27T09:32:41.275Z,101591.72
2022-12-27T09:35:28.132Z,101599.53
2022-12-27T09:38:14.818Z,101597.88
2022-12-27T09:41:05.614Z,101607.50
2022-12-27T09:43:59.458Z,101609.31
2022-12-27T09:46:53.522Z,101604.09
2022-12-27T09:49:44.046Z,101604.06
2022-12-27T09:52:35.631Z,101611.94
2022-12-27T09:55:33.405Z,101609.31
2022-12-27T09:58:33.103Z,101609.31
2022-12-27T10:01:26.793Z,101615.41
2022-12-27T10:04:15.102Z,101613.69
2022-12-27T10:07:10.835Z,101612.84
2022-12-27T10:10:07.206Z,101619.81
2022-12-27T10:13:05.430Z,101621.59
2022-12-27T10:16:06.689Z,101626.91
2022-12-27T10:19:11.567Z,101619.91
2022-12-27T10:22:21.598Z,101622.53
2022-12-27T10:25:13.453Z,101625.13
2022-12-27T10:28:02.689Z,101625.16
2022-12-27T10:30:49.536Z,101625.16
2022-12-27T10:33:38.158Z,101621.66
2022-12-27T10:36:27.952Z,101576.88
2022-12-27T10:39:19.813Z,101639.16
2022-12-27T10:42:17.003Z,101636.59
2022-12-27T10:45:26.138Z,101643.56
2022-12-27T10:48:19.527Z,101604.94
2022-12-27T10:51:11.499Z,101645.31
2022-12-27T10:54:02.155Z,101654.97
2022-12-27T10:56:48.952Z,101659.34
2022-12-27T10:59:36.268Z,101656.75
2022-12-27T11:02:23.106Z,101658.50
2022-12-27T11:05:22.721Z,101660.25
2022-12-27T11:08:23.820Z,101650.59
2022-12-27T11:11:17.417Z,101654.13
2022-12-27T11:14:13.315Z,101661.19
2022-12-27T11:17:00.270Z,101666.41
2022-12-27T11:19:49.185Z,101668.16
2022-12-27T11:22:44.753Z,101674.31
2022-12-27T11:25:33.237Z,101675.25
2022-12-27T11:28:29.212Z,101670.84
2022-12-27T11:31:19.267Z,101674.38
2022-12-27T11:34:09.918Z,101674.41
2022-12-27T11:37:06.185Z,101675.25
2022-12-27T11:39:55.174Z,101679.63
2022-12-27T11:42:48.617Z,101689.25
2022-12-27T11:45:38.629Z,101688.41
2022-12-27T11:48:30.039Z,101697.13
2022-12-27T11:51:41.909Z,101685.78
2022-12-27T11:54:51.586Z,101694.56
2022-12-27T11:58:00.698Z,101686.66
2022-12-27T12:00:59.098Z,101650.72
2022-12-27T12:04:27.181Z,101683.16
2022-12-27T12:07:28.768Z,101677.91
2022-12-27T12:10:26.681Z,101689.31
2022-12-27T12:13:32.108Z,101694.59
2022-12-27T12:16:46.152Z,101701.59
2022-12-27T12:19:49.567Z,101693.72
2022-12-27T12:22:56.029Z,101692.00
2022-12-27T12:26:13.268Z,101697.25
2022-12-27T12:29:33.229Z,101694.59
2022-12-27T12:32:30.379Z,101694.59
2022-12-27T12:35:40.725Z,101693.72
2022-12-27T12:38:36.056Z,101703.38
2022-12-27T12:41:59.197Z,101699.88
2022-12-27T12:45:07.515Z,101703.47
2022-12-27T12:48:20.046Z,101703.41
2022-12-27T12:51:27.357Z,101712.16
2022-12-27T12:54:27.735Z,101714.84
2022-12-27T12:57:29.320Z,101721.78
2022-12-27T13:00:28.598Z,101723.50
2022-12-27T13:04:01.755Z,101732.31
2022-12-27T13:07:16.451Z,101736.75
2022-12-27T13:10:37.237Z,101735.88
2022-12-27T13:13:33.562Z,101741.13
2022-12-27T13:16:32.407Z,101735.88
2022-12-27T13:19:38.902Z,101738.50
2022-12-27T13:22:38.044Z,101741.06
2022-12-27T13:25:32.998Z,101738.47
2022-12-27T13:28:39.231Z,101736.72
2022-12-27T13:31:39.443Z,101731.38
2022-12-27T13:34:41.381Z,101734.06
2022-12-27T13:37:44.083Z,101739.25
2022-12-27T13:40:48.607Z,101746.28
2022-12-27T13:43:53.505Z,101736.59
2022-12-27T13:47:12.496Z,101754.06
2022-12-27T13:50:32.838Z,101760.09
2022-12-27T13:53:41.228Z,101767.78
2022-12-27T13:59:56.839Z,101757.34
2022-12-27T14:03:22.836Z,101642.25
2022-12-27T14:06:29.941Z,101773.13
2022-12-27T14:09:35.796Z,101767.81
2022-12-27T14:12:45.977Z,101773.00
2022-12-27T14:16:08.171Z,101769.53
2022-12-27T14:19:18.459Z,101773.84
2022-12-27T14:22:33.010Z,101777.28
2022-12-27T14:25:53.130Z,101780.59
2022-12-27T14:29:01.277Z,101791.03
2022-12-27T14:32:09.365Z,101794.69
2022-12-27T14:35:28.012Z,101799.84
2022-12-27T14:38:43.550Z,101803.13
2022-12-27T14:42:16.169Z,101799.63
2022-12-27T14:45:57.481Z,101806.72
2022-12-27T14:49:25.240Z,101811.94
2022-12-27T14:52:46.990Z,101812.69
2022-12-27T14:55:58.734Z,101814.38
2022-12-27T14:58:58.874Z,101822.22
2022-12-27T15:02:03.261Z,101815.22
2022-12-27T15:05:15.170Z,101820.56
2022-12-27T15:08:23.799Z,101816.22
2022-12-27T15:11:39.306Z,101820.53
2022-12-27T15:14:46.323Z,101828.44
2022-12-27T15:17:51.011Z,101832.75
2022-12-27T15:20:57.871Z,101832.78
2022-12-27T15:23:52.907Z,101824.19
2022-12-27T15:26:49.159Z,101832.03
2022-12-27T15:29:52.298Z,101827.63
2022-12-27T15:32:51.188Z,101828.53
2022-12-27T15:35:53.999Z,101832.94
2022-12-27T15:38:53.565Z,101830.31
2022-12-27T15:42:00.611Z,101827.78
2022-12-27T15:44:57.173Z,101833.13
2022-12-27T15:47:58.091Z,101823.38
2022-12-27T15:50:58.753Z,101831.22
2022-12-27T15:54:12.635Z,101829.34
2022-12-27T15:57:34.706Z,101826.56
2022-12-27T16:00:33.662Z,101826.41
2022-12-27T16:03:35.548Z,101833.19
2022-12-27T16:06:50.925Z,101829.66
2022-12-27T16:09:38.936Z,101829.50
2022-12-27T16:12:39.354Z,101822.34
2022-12-27T16:15:39.498Z,101815.41
2022-12-27T16:19:10.616Z,101820.34
2022-12-27T16:21:58.083Z,101822.13
2022-12-27T16:24:44.679Z,101831.66
2022-12-27T16:27:34.600Z,101828.88
2022-12-27T16:30:39.989Z,101821.06
2022-12-27T16:33:35.402Z,101835.78
2022-12-27T16:36:29.862Z,101830.28
2022-12-27T16:39:51.990Z,101833.06
2022-12-27T16:43:17.635Z,101823.38
2022-12-27T16:46:18.832Z,101825.56
2022-12-27T16:49:24.236Z,101828.34
2022-12-27T16:52:32.324Z,101833.50
2022-12-27T16:55:52.856Z,101832.41
2022-12-27T16:58:41.185Z,101831.50
2022-12-27T17:02:00.462Z,101839.09
2022-12-27T17:05:00.518Z,101839.38
2022-12-27T17:08:04.716Z,101831.34
2022-12-27T17:11:03.719Z,101836.53
2022-12-27T17:13:57.109Z,101845.13
2022-12-27T17:16:49.265Z,101846.03
2022-12-27T17:19:39.840Z,101845.13
2022-12-27T17:22:34.213Z,101845.94
2022-12-27T17:25:32.352Z,101847.97
2022-12-27T17:28:27.777Z,101842.69
2022-12-27T17:31:22.592Z,101845.38
2022-12-27T17:34:18.130Z,101840.97
2022-12-27T17:37:15.707Z,101826.69
2022-12-27T17:40:22.693Z,101845.91
2022-12-27T17:43:40.650Z,101845.78
2022-12-27T17:46:41.238Z,101797.72
2022-12-27T17:49:30.210Z,101851.06
2022-12-27T17:52:35.419Z,101854.63
2022-12-27T17:55:42.734Z,101850.34
2022-12-27T17:58:35.820Z,101845.91
2022-12-27T18:01:22.520Z,101851.13
2022-12-27T18:04:21.699Z,101846.78
2022-12-27T18:07:14.087Z,101845.78
2022-12-27T18:10:08.538Z,101853.59
2022-12-27T18:12:57.287Z,101748.94
2022-12-27T18:15:46.236Z,101847.44
2022-12-27T18:18:35.694Z,101847.50
2022-12-27T18:21:25.667Z,101847.53
2022-12-27T18:24:26.641Z,101848.38
2022-12-27T18:27:18.811Z,101850.06
2022-12-27T18:30:06.388Z,101838.63
2022-12-27T18:32:53.783Z,101841.28
2022-12-27T18:35:41.640Z,101843.56
2022-12-27T18:38:33.299Z,101843.47
2022-12-27T18:41:22.836Z,101816.47
2022-12-27T18:44:18.879Z,101838.41
2022-12-27T18:47:20.370Z,101829.06
2022-12-27T18:50:16.834Z,101826.47
2022-12-27T18:53:06.401Z,101808.44
2022-12-27T18:56:03.056Z,101835.66
2022-12-27T18:59:01.141Z,101835.41
2022-12-27T19:01:48.990Z,101830.94
2022-12-27T19:04:35.943Z,101837.94
2022-12-27T19:07:22.904Z,101839.47
2022-12-27T19:10:17.976Z,101842.69
2022-12-27T19:13:06.279Z,101840.09
2022-12-27T19:15:54.326Z,101840.22
2022-12-27T19:18:41.046Z,101838.41
2022-12-27T19:21:34.222Z,101832.31
2022-12-27T19:24:31.923Z,101824.41
2022-12-27T19:27:25.126Z,101824.47
2022-12-27T19:30:32.099Z,101824.56
2022-12-27T19:33:26.843Z,101817.63
2022-12-27T19:36:14.952Z,101832.50
2022-12-27T19:39:02.460Z,101825.44
2022-12-27T19:41:49.478Z,101826.13
2022-12-27T19:44:36.367Z,101827.88
2022-12-27T19:47:24.775Z,101805.78
2022-12-27T19:50:12.494Z,101823.59
2022-12-27T19:52:59.956Z,101809.50
2022-12-27T19:55:47.034Z,101824.50
2022-12-27T19:58:33.607Z,101835.41
2022-12-27T20:01:20.449Z,101838.88
2022-12-27T20:04:08.531Z,101827.59
2022-12-27T20:06:55.586Z,101826.53
2022-12-27T20:09:42.285Z,101835.50
2022-12-27T20:12:29.139Z,101831.97
2022-12-27T20:15:16.022Z,101831.13
2022-12-27T20:18:02.730Z,101832.75
2022-12-27T20:20:51.843Z,101831.75
2022-12-27T20:23:38.711Z,101839.44
2022-12-27T20:26:26.554Z,101833.56
2022-12-27T20:29:15.283Z,101837.44
2022-12-27T20:32:02.311Z,101833.03
2022-12-27T20:34:49.288Z,101825.94
2022-12-27T20:37:37.584Z,101823.84
2022-12-27T20:40:24.719Z,101820.31
2022-12-27T20:43:11.404Z,101816.81
2022-12-27T20:45:58.237Z,101826.94
2022-12-27T20:48:46.791Z,101824.31
2022-12-27T20:51:33.618Z,101820.31
2022-12-27T20:54:21.877Z,101813.91
2022-12-27T20:57:08.739Z,101810.41
2022-12-27T20:59:55.472Z,101805.16
2022-12-27T21:02:42.656Z,101800.28
2022-12-27T21:05:29.751Z,101804.66
2022-12-27T21:08:16.618Z,101661.28
2022-12-27T21:11:09.743Z,101793.88
2022-12-27T21:13:57.078Z,101740.19
2022-12-27T21:16:44.091Z,101785.34
2022-12-27T21:19:31.211Z,101775.00
2022-12-27T21:22:18.029Z,101784.72
2022-12-27T21:25:04.913Z,101764.78
2022-12-27T21:27:52.934Z,101776.63
2022-12-27T21:30:39.690Z,101759.38
2022-12-27T21:33:27.543Z,101764.75
2022-12-27T21:36:16.428Z,101765.59
2022-12-27T21:39:03.948Z,101756.91
2022-12-27T21:41:50.466Z,101764.09
2022-12-27T21:44:39.020Z,101760.78
2022-12-27T21:47:26.185Z,101753.00
2022-12-27T21:50:12.946Z,101751.31
2022-12-27T21:52:59.825Z,101754.13
2022-12-27T21:55:46.941Z,101707.50
2022-12-27T21:58:34.729Z,101754.25
2022-12-27T22:01:25.025Z,101750.22
2022-12-27T22:04:12.355Z,101744.94
2022-12-27T22:06:59.537Z,101747.38
2022-12-27T22:09:46.791Z,101731.69
2022-12-27T22:12:33.914Z,101733.59
2022-12-27T22:15:22.216Z,101725.69
2022-12-27T22:18:11.069Z,101720.78
2022-12-27T22:21:01.244Z,101723.28
2022-12-27T22:23:50.700Z,101725.16
2022-12-27T22:26:38.841Z,101718.97
2022-12-27T22:29:31.571Z,101719.03
2022-12-27T22:32:22.497Z,101717.28
2022-12-27T22:35:11.609Z,101713.00
2022-12-27T22:37:59.234Z,101699.88
2022-12-27T22:40:47.206Z,101699.88
2022-12-27T22:43:34.872Z,101699.97
2022-12-27T22:46:22.521Z,101693.84
2022-12-27T22:49:11.191Z,101691.16
2022-12-27T22:51:59.757Z,101690.22
2022-12-27T22:55:05.114Z,101687.56
2022-12-27T22:57:53.940Z,101686.66
2022-12-27T23:00:41.449Z,101691.94
2022-12-27T23:03:28.984Z,101668.34
2022-12-27T23:06:15.742Z,101677.00
2022-12-27T23:09:03.853Z,101668.41
2022-12-27T23:11:50.435Z,101668.28
2022-12-27T23:14:37.220Z,101663.78
2022-12-27T23:17:23.925Z,101663.91
2022-12-27T23:20:12.345Z,101667.38
2022-12-27T23:22:59.075Z,101662.97
2022-12-27T23:25:47.419Z,101651.50
2022-12-27T23:28:36.959Z,101652.41
2022-12-27T23:31:25.196Z,101649.91
2022-12-27T23:34:13.046Z,101648.97
2022-12-27T23:37:00.034Z,101640.25
2022-12-27T23:39:46.923Z,101635.03
2022-12-27T23:42:35.190Z,101628.97
2022-12-27T23:45:22.107Z,101634.81
2022-12-27T23:48:08.878Z,101634.81
2022-12-27T23:50:55.701Z,101632.22
2022-12-27T23:53:43.329Z,101630.50
2022-12-27T23:56:31.612Z,101616.56
2022-12-27T23:59:19.843Z,101602.78
